Time;durP1;ratioP1;P1;durP2;ratioP2;P2;SDS_P1;SDS_P2;PMS_P1;PMS_P2;Temp;Humidity;BMP_temperature;BMP_pressure;BME280_temperature;BME280_humidity;BME280_pressure;Samples;Min_cycle;Max_cycle;Signal;HPM_P1;HPM_P2
2021/12/18 00:00:06;;;;;;;25.60;16.17;;;;;;;;;;4995411;28;20050;-66
2021/12/18 00:02:32;;;;;;;26.52;17.02;;;;;;;;;;4995223;28;20108;-67
2021/12/18 00:04:59;;;;;;;25.15;15.63;;;;;;;;;;4995272;28;20133;-67
2021/12/18 00:07:25;;;;;;;28.27;17.42;;;;;;;;;;4995081;28;20050;-67
2021/12/18 00:09:53;;;;;;;27.52;15.85;;;;;;;;;;4995243;28;20418;-68
2021/12/18 00:12:20;;;;;;;28.08;16.40;;;;;;;;;;4995083;28;20502;-67
2021/12/18 00:14:46;;;;;;;27.33;16.92;;;;;;;;;;4995020;28;20054;-67
2021/12/18 00:17:13;;;;;;;27.27;16.15;;;;;;;;;;4995163;28;20050;-67
2021/12/18 00:19:39;;;;;;;26.65;16.27;;;;;;;;;;5009966;28;20108;-67
2021/12/18 00:22:06;;;;;;;27.40;17.08;;;;;;;;;;5014601;28;20493;-69
2021/12/18 00:24:33;;;;;;;24.80;15.90;;;;;;;;;;5014348;28;20445;-69
2021/12/18 00:27:00;;;;;;;26.23;15.77;;;;;;;;;;5014925;28;20103;-69
2021/12/18 00:29:27;;;;;;;27.55;16.50;;;;;;;;;;5014553;28;20112;-68
2021/12/18 00:31:53;;;;;;;26.38;15.65;;;;;;;;;;5012293;28;20045;-67
2021/12/18 00:34:20;;;;;;;25.77;16.40;;;;;;;;;;4994492;28;20050;-68
2021/12/18 00:36:46;;;;;;;31.63;19.95;;;;;;;;;;4994808;28;20050;-67
2021/12/18 00:39:13;;;;;;;22.98;15.00;;;;;;;;;;4994201;28;20116;-68
2021/12/18 00:44:13;;;;;;;25.27;15.15;;;;;;;;;;4994464;28;20058;-67
2021/12/18 00:46:43;;;;;;;23.05;15.38;;;;;;;;;;4994617;28;20046;-67
2021/12/18 00:49:12;;;;;;;25.17;16.17;;;;;;;;;;4993737;28;20050;-67
2021/12/18 00:51:39;;;;;;;24.75;15.77;;;;;;;;;;4994159;28;20050;-67
2021/12/18 00:54:05;;;;;;;24.90;15.82;;;;;;;;;;4994139;28;20097;-68
2021/12/18 00:56:32;;;;;;;26.00;15.30;;;;;;;;;;4994463;28;20054;-67
2021/12/18 00:58:59;;;;;;;24.55;14.90;;;;;;;;;;5003193;28;20104;-67
2021/12/18 01:01:27;;;;;;;26.10;15.55;;;;;;;;;;5013828;28;20054;-67
2021/12/18 01:03:54;;;;;;;24.38;15.65;;;;;;;;;;5013536;28;20046;-68
2021/12/18 01:06:23;;;;;;;23.20;16.17;;;;;;;;;;5013799;28;20050;-68
2021/12/18 01:08:54;;;;;;;24.75;15.95;;;;;;;;;;5013797;28;20049;-68
2021/12/18 01:14:45;;;;;;;23.65;15.48;;;;;;;;;;4971547;28;20101;-68
2021/12/18 01:25:10;;;;;;;25.63;15.80;;;;;;;;;;4994157;28;20112;-67
2021/12/18 01:27:36;;;;;;;24.90;16.20;;;;;;;;;;4993844;28;20116;-67
2021/12/18 01:30:06;;;;;;;25.67;16.05;;;;;;;;;;4993768;28;20058;-67
2021/12/18 01:32:32;;;;;;;26.80;16.13;;;;;;;;;;4993242;28;20050;-68
2021/12/18 01:34:59;;;;;;;26.48;16.67;;;;;;;;;;4993623;28;20461;-67
2021/12/18 01:37:26;;;;;;;27.45;16.80;;;;;;;;;;5004586;28;20053;-68
2021/12/18 01:39:54;;;;;;;25.27;16.58;;;;;;;;;;5013370;28;20050;-67
2021/12/18 01:45:20;;;;;;;25.90;15.52;;;;;;;;;;5013152;28;20053;-67
2021/12/18 01:53:19;;;;;;;26.00;15.55;;;;;;;;;;4993210;28;20042;-68
2021/12/18 01:55:48;;;;;;;27.08;16.63;;;;;;;;;;4993355;28;20399;-67
2021/12/18 01:58:22;;;;;;;29.00;16.30;;;;;;;;;;4993331;28;20058;-68
2021/12/18 02:00:51;;;;;;;26.13;16.42;;;;;;;;;;4993348;28;20054;-67
2021/12/18 02:03:18;;;;;;;26.08;15.98;;;;;;;;;;5002403;28;20123;-68
2021/12/18 02:05:46;;;;;;;27.20;16.90;;;;;;;;;;5011624;28;20056;-67
2021/12/18 02:08:16;;;;;;;26.17;15.60;;;;;;;;;;5012877;28;20091;-69
2021/12/18 02:10:50;;;;;;;28.15;16.00;;;;;;;;;;4995724;28;20065;-67
2021/12/18 02:21:33;;;;;;;28.48;17.23;;;;;;;;;;4992988;28;20395;-67
2021/12/18 02:24:00;;;;;;;30.33;17.67;;;;;;;;;;4992705;28;20047;-68
2021/12/18 02:26:27;;;;;;;28.55;18.02;;;;;;;;;;4992851;28;20113;-67
2021/12/18 02:28:56;;;;;;;27.02;15.95;;;;;;;;;;4992749;28;20050;-68
2021/12/18 02:31:23;;;;;;;32.13;18.02;;;;;;;;;;4992783;28;20104;-67
2021/12/18 02:33:50;;;;;;;28.45;17.10;;;;;;;;;;4992449;28;20046;-68
2021/12/18 02:36:23;;;;;;;27.73;16.35;;;;;;;;;;4992679;28;20054;-67
2021/12/18 02:41:40;;;;;;;25.10;15.73;;;;;;;;;;4993858;28;20050;-67
2021/12/18 02:44:10;;;;;;;30.23;16.35;;;;;;;;;;5012196;28;20045;-67
2021/12/18 02:46:37;;;;;;;26.02;16.13;;;;;;;;;;5012097;28;20493;-68
2021/12/18 02:49:06;;;;;;;26.65;15.88;;;;;;;;;;5012020;28;20054;-68
2021/12/18 02:51:33;;;;;;;27.60;16.15;;;;;;;;;;5011971;28;20053;-67
2021/12/18 02:53:59;;;;;;;27.85;16.40;;;;;;;;;;5006184;28;20085;-67
2021/12/18 02:56:26;;;;;;;26.48;16.23;;;;;;;;;;4993311;28;20062;-68
2021/12/18 02:58:58;;;;;;;27.75;16.77;;;;;;;;;;4999885;28;20050;-68
2021/12/18 03:01:26;;;;;;;27.25;16.85;;;;;;;;;;4992330;28;20050;-68
2021/12/18 03:03:54;;;;;;;26.50;16.23;;;;;;;;;;4992126;28;20469;-68
2021/12/18 03:24:59;;;;;;;27.63;17.38;;;;;;;;;;4996043;28;20050;-66
2021/12/18 03:27:26;;;;;;;27.70;15.32;;;;;;;;;;4996115;28;20055;-66
2021/12/18 03:29:53;;;;;;;27.52;15.65;;;;;;;;;;4996253;28;20054;-66
2021/12/18 03:32:20;;;;;;;26.15;15.35;;;;;;;;;;4995903;28;20510;-67
2021/12/18 03:34:47;;;;;;;28.05;16.65;;;;;;;;;;4995754;28;20054;-67
2021/12/18 03:37:13;;;;;;;25.67;15.30;;;;;;;;;;4996196;28;20055;-66
2021/12/18 03:39:40;;;;;;;28.45;15.00;;;;;;;;;;4995865;28;20056;-66
2021/12/18 03:42:08;;;;;;;24.52;14.43;;;;;;;;;;4995884;28;20050;-66
2021/12/18 03:44:34;;;;;;;25.55;14.35;;;;;;;;;;4995616;28;20046;-66
2021/12/18 03:47:01;;;;;;;25.08;15.40;;;;;;;;;;4997928;28;20074;-66
2021/12/18 03:49:28;;;;;;;24.45;14.50;;;;;;;;;;5031958;23;20051;-66
2021/12/18 03:51:54;;;;;;;25.65;14.23;;;;;;;;;;4995641;28;20054;-66
2021/12/18 03:54:21;;;;;;;24.27;13.88;;;;;;;;;;4995330;28;20499;-66
2021/12/18 03:56:48;;;;;;;25.00;13.88;;;;;;;;;;4995404;28;20078;-66
2021/12/18 03:59:15;;;;;;;21.83;12.45;;;;;;;;;;4995292;28;20070;-67
2021/12/18 04:01:41;;;;;;;26.23;13.82;;;;;;;;;;4995469;28;20054;-66
2021/12/18 04:04:08;;;;;;;22.38;13.55;;;;;;;;;;4995071;28;20523;-66
2021/12/18 04:06:39;;;;;;;25.42;13.52;;;;;;;;;;4995211;28;20050;-67
2021/12/18 04:09:06;;;;;;;24.40;13.13;;;;;;;;;;4978686;28;20401;-66
2021/12/18 04:11:33;;;;;;;23.13;12.95;;;;;;;;;;4996583;28;20053;-67
2021/12/18 04:14:02;;;;;;;25.60;14.10;;;;;;;;;;4995202;28;20046;-67
2021/12/18 04:16:29;;;;;;;24.08;13.50;;;;;;;;;;4995204;28;20046;-66
2021/12/18 04:18:55;;;;;;;24.08;14.10;;;;;;;;;;4995234;28;20109;-67
2021/12/18 04:21:22;;;;;;;25.88;14.30;;;;;;;;;;4995048;28;20421;-66
2021/12/18 04:23:49;;;;;;;24.73;13.20;;;;;;;;;;4994816;28;20046;-66
2021/12/18 04:26:15;;;;;;;24.15;13.63;;;;;;;;;;4993664;28;20047;-67
2021/12/18 04:28:42;;;;;;;22.38;12.68;;;;;;;;;;4994741;28;20054;-66
2021/12/18 04:31:08;;;;;;;22.63;12.82;;;;;;;;;;4994914;28;20046;-66
2021/12/18 04:33:35;;;;;;;24.02;13.30;;;;;;;;;;4994745;28;20082;-66
2021/12/18 04:36:02;;;;;;;22.10;12.05;;;;;;;;;;4994868;28;20492;-66
2021/12/18 04:38:29;;;;;;;20.02;12.07;;;;;;;;;;4994613;28;20054;-66
2021/12/18 04:40:55;;;;;;;20.42;11.45;;;;;;;;;;4994660;28;20050;-66
2021/12/18 04:43:22;;;;;;;23.38;12.93;;;;;;;;;;4994336;28;20092;-67
2021/12/18 04:45:48;;;;;;;21.58;11.88;;;;;;;;;;4994773;28;20116;-66
2021/12/18 04:48:15;;;;;;;21.27;12.07;;;;;;;;;;4994432;28;20050;-66
2021/12/18 04:50:42;;;;;;;19.88;11.27;;;;;;;;;;4994602;28;20501;-66
2021/12/18 04:53:09;;;;;;;21.10;12.13;;;;;;;;;;4994069;28;20497;-66
2021/12/18 04:55:36;;;;;;;20.25;11.45;;;;;;;;;;4994534;28;20054;-66
2021/12/18 04:58:03;;;;;;;22.42;11.45;;;;;;;;;;4994392;28;20050;-66
2021/12/18 05:00:37;;;;;;;22.30;12.02;;;;;;;;;;4994356;28;20085;-66
2021/12/18 05:03:07;;;;;;;21.42;11.68;;;;;;;;;;4994032;28;20046;-66
2021/12/18 05:05:34;;;;;;;22.42;11.20;;;;;;;;;;4994276;28;20572;-66
2021/12/18 05:08:01;;;;;;;19.75;11.48;;;;;;;;;;4994093;28;20101;-66
2021/12/18 05:10:28;;;;;;;20.42;11.85;;;;;;;;;;4994620;28;20050;-66
2021/12/18 05:12:55;;;;;;;20.33;11.00;;;;;;;;;;4993788;28;20121;-66
2021/12/18 05:15:21;;;;;;;19.70;10.70;;;;;;;;;;4994123;28;20167;-66
2021/12/18 05:17:48;;;;;;;19.42;10.88;;;;;;;;;;4993969;28;20429;-66
2021/12/18 05:20:15;;;;;;;17.35;10.38;;;;;;;;;;4993491;28;20050;-66
2021/12/18 05:22:41;;;;;;;17.67;10.05;;;;;;;;;;4993896;28;20105;-67
2021/12/18 05:25:08;;;;;;;17.50;9.80;;;;;;;;;;4993868;28;20093;-67
2021/12/18 05:27:36;;;;;;;17.95;10.18;;;;;;;;;;4993854;28;20058;-65
2021/12/18 05:30:04;;;;;;;16.17;9.63;;;;;;;;;;4993736;28;20104;-65
2021/12/18 05:32:31;;;;;;;16.60;8.93;;;;;;;;;;4993561;28;20112;-65
2021/12/18 05:34:57;;;;;;;15.75;8.73;;;;;;;;;;4993570;28;20070;-66
2021/12/18 05:37:46;;;;;;;14.52;8.40;;;;;;;;;;4993291;28;20104;-66
2021/12/18 05:40:16;;;;;;;13.18;8.05;;;;;;;;;;4993677;28;20134;-66
2021/12/18 05:42:46;;;;;;;15.27;7.80;;;;;;;;;;4993651;28;20406;-66
2021/12/18 05:45:13;;;;;;;17.05;9.02;;;;;;;;;;4993351;28;20047;-66
2021/12/18 05:47:40;;;;;;;15.15;9.13;;;;;;;;;;4993598;28;20051;-66
2021/12/18 05:50:07;;;;;;;15.68;8.45;;;;;;;;;;4993285;28;20468;-66
2021/12/18 05:52:34;;;;;;;13.90;7.90;;;;;;;;;;4993507;28;20104;-65
2021/12/18 05:55:00;;;;;;;13.20;8.32;;;;;;;;;;4993226;28;20166;-65
2021/12/18 05:57:27;;;;;;;12.18;7.82;;;;;;;;;;4993134;28;20571;-66
2021/12/18 05:59:54;;;;;;;13.93;7.50;;;;;;;;;;4992998;28;20042;-65
2021/12/18 06:02:20;;;;;;;13.27;8.20;;;;;;;;;;4993184;28;20468;-66
2021/12/18 06:04:47;;;;;;;16.35;8.55;;;;;;;;;;4993068;28;20057;-66
2021/12/18 06:07:28;;;;;;;14.55;8.80;;;;;;;;;;4993107;28;20497;-65
2021/12/18 06:09:55;;;;;;;14.68;8.40;;;;;;;;;;4992845;28;20556;-67
2021/12/18 06:12:22;;;;;;;15.20;7.78;;;;;;;;;;4992837;28;20075;-66
2021/12/18 06:14:48;;;;;;;11.82;7.20;;;;;;;;;;4992604;28;20097;-66
2021/12/18 06:17:15;;;;;;;15.02;9.32;;;;;;;;;;4992824;28;20490;-65
2021/12/18 06:19:41;;;;;;;15.88;8.45;;;;;;;;;;4992794;28;20575;-66
2021/12/18 06:22:08;;;;;;;16.45;8.40;;;;;;;;;;4992922;28;20120;-66
2021/12/18 06:24:34;;;;;;;15.27;8.60;;;;;;;;;;4992662;28;20046;-65
2021/12/18 06:27:01;;;;;;;12.88;8.73;;;;;;;;;;4992744;28;20054;-66
2021/12/18 06:29:28;;;;;;;14.00;8.07;;;;;;;;;;4992404;28;20054;-66
2021/12/18 06:31:54;;;;;;;14.95;8.32;;;;;;;;;;4992840;28;20050;-66
2021/12/18 06:34:21;;;;;;;14.18;8.55;;;;;;;;;;4992420;28;20046;-65
2021/12/18 06:36:47;;;;;;;14.63;8.00;;;;;;;;;;4992519;28;20520;-66
2021/12/18 06:39:14;;;;;;;18.67;9.40;;;;;;;;;;4992618;28;20505;-65
2021/12/18 06:41:40;;;;;;;14.50;8.63;;;;;;;;;;4993085;28;20492;-66
2021/12/18 06:44:07;;;;;;;13.40;7.97;;;;;;;;;;4992559;28;20058;-65
2021/12/18 06:46:34;;;;;;;13.07;8.48;;;;;;;;;;4992454;28;20104;-66
2021/12/18 06:49:00;;;;;;;15.70;8.98;;;;;;;;;;4991541;28;20101;-66
2021/12/18 06:51:27;;;;;;;14.05;8.27;;;;;;;;;;4992614;28;20078;-66
2021/12/18 06:53:53;;;;;;;15.38;9.05;;;;;;;;;;4992424;28;20090;-66
2021/12/18 06:56:21;;;;;;;13.50;7.68;;;;;;;;;;4992356;28;20054;-66
2021/12/18 06:58:47;;;;;;;16.75;8.45;;;;;;;;;;4992374;28;20050;-66
2021/12/18 07:01:14;;;;;;;16.30;9.38;;;;;;;;;;4991917;28;20505;-65
2021/12/18 07:03:44;;;;;;;14.15;7.43;;;;;;;;;;4992373;28;20129;-66
2021/12/18 07:06:11;;;;;;;16.20;8.55;;;;;;;;;;4992209;28;20424;-66
2021/12/18 07:08:37;;;;;;;13.15;7.25;;;;;;;;;;4992255;28;20088;-66
2021/12/18 07:11:04;;;;;;;13.35;7.88;;;;;;;;;;4992084;28;20105;-67
2021/12/18 07:13:31;;;;;;;14.35;7.80;;;;;;;;;;4991715;28;20394;-66
2021/12/18 07:15:57;;;;;;;13.70;8.30;;;;;;;;;;4974998;28;20054;-66
2021/12/18 07:18:24;;;;;;;17.10;9.38;;;;;;;;;;4992054;28;20402;-65
2021/12/18 07:20:52;;;;;;;14.43;7.53;;;;;;;;;;4992219;28;20047;-66
2021/12/18 07:23:19;;;;;;;15.20;8.30;;;;;;;;;;4991761;28;20505;-66
2021/12/18 07:25:45;;;;;;;16.20;8.85;;;;;;;;;;4992246;28;20054;-66
2021/12/18 07:28:12;;;;;;;13.73;7.85;;;;;;;;;;4991741;28;20050;-65
2021/12/18 07:30:38;;;;;;;15.43;8.30;;;;;;;;;;4992126;28;20414;-65
2021/12/18 07:33:10;;;;;;;12.93;7.40;;;;;;;;;;4992026;28;20050;-65
2021/12/18 07:35:40;;;;;;;18.13;9.48;;;;;;;;;;4992503;28;20089;-66
2021/12/18 07:38:07;;;;;;;14.98;8.10;;;;;;;;;;4992124;28;20124;-66
2021/12/18 07:40:34;;;;;;;16.17;9.05;;;;;;;;;;4992011;28;20050;-66
2021/12/18 07:43:01;;;;;;;14.27;8.13;;;;;;;;;;4991766;28;20190;-65
2021/12/18 07:45:27;;;;;;;18.27;8.77;;;;;;;;;;4991974;28;20058;-65
2021/12/18 07:47:54;;;;;;;13.65;7.78;;;;;;;;;;4991990;28;20101;-66
2021/12/18 07:50:20;;;;;;;15.60;8.77;;;;;;;;;;4991567;28;20706;-65
2021/12/18 07:52:48;;;;;;;17.48;9.07;;;;;;;;;;4991701;28;20121;-65
2021/12/18 07:55:16;;;;;;;14.13;8.52;;;;;;;;;;4991706;28;20050;-65
2021/12/18 07:57:43;;;;;;;14.88;8.82;;;;;;;;;;4991632;28;20050;-66
2021/12/18 08:00:11;;;;;;;14.00;8.25;;;;;;;;;;4992555;28;20050;-65
2021/12/18 08:02:39;;;;;;;14.50;8.43;;;;;;;;;;4992725;28;20489;-68
2021/12/18 08:05:06;;;;;;;18.00;8.80;;;;;;;;;;4994284;28;20046;-67
2021/12/18 08:07:33;;;;;;;13.90;7.97;;;;;;;;;;4995023;28;20053;-66
2021/12/18 08:09:59;;;;;;;14.93;8.68;;;;;;;;;;4995024;28;20050;-69
2021/12/18 08:12:26;;;;;;;15.88;8.77;;;;;;;;;;4994927;28;20481;-68
2021/12/18 08:14:55;;;;;;;14.77;7.70;;;;;;;;;;4977435;28;20050;-67
2021/12/18 08:17:23;;;;;;;13.75;8.02;;;;;;;;;;4994909;28;20425;-69
2021/12/18 08:19:50;;;;;;;16.85;9.27;;;;;;;;;;4974482;28;20046;-66
2021/12/18 08:22:16;;;;;;;16.70;8.70;;;;;;;;;;4991945;28;20074;-68
2021/12/18 08:24:43;;;;;;;16.90;9.02;;;;;;;;;;4982007;28;20047;-66
2021/12/18 08:27:10;;;;;;;13.38;8.20;;;;;;;;;;4985244;28;20113;-68
2021/12/18 08:29:36;;;;;;;15.57;7.53;;;;;;;;;;4984721;28;20105;-67
2021/12/18 08:32:03;;;;;;;11.60;7.00;;;;;;;;;;4984652;28;20054;-67
2021/12/18 08:34:30;;;;;;;11.55;7.28;;;;;;;;;;4985143;28;20425;-67
2021/12/18 08:36:57;;;;;;;13.35;7.75;;;;;;;;;;4980061;28;20109;-67
2021/12/18 08:39:26;;;;;;;12.60;7.40;;;;;;;;;;4981801;28;20054;-68
2021/12/18 08:41:53;;;;;;;12.45;7.10;;;;;;;;;;4983758;28;20043;-69
2021/12/18 08:44:20;;;;;;;13.57;7.40;;;;;;;;;;4983469;28;20105;-71
2021/12/18 08:46:47;;;;;;;14.40;7.22;;;;;;;;;;4981977;28;20142;-71
2021/12/18 08:49:14;;;;;;;13.02;7.53;;;;;;;;;;4985439;28;20109;-67
2021/12/18 08:51:41;;;;;;;12.05;7.03;;;;;;;;;;4979326;28;20113;-69
2021/12/18 08:54:07;;;;;;;13.48;7.50;;;;;;;;;;4980180;28;20100;-68
2021/12/18 08:56:34;;;;;;;15.32;7.90;;;;;;;;;;4980879;28;20051;-68
2021/12/18 08:59:03;;;;;;;13.73;7.38;;;;;;;;;;4980270;28;20528;-65
2021/12/18 09:01:30;;;;;;;13.23;7.75;;;;;;;;;;4963170;28;20055;-67
2021/12/18 09:03:57;;;;;;;15.48;7.38;;;;;;;;;;4966804;28;20478;-67
2021/12/18 09:06:25;;;;;;;17.42;7.35;;;;;;;;;;4964310;28;20499;-69
2021/12/18 09:08:52;;;;;;;12.98;7.68;;;;;;;;;;4960202;28;20047;-67
2021/12/18 09:11:18;;;;;;;12.85;7.40;;;;;;;;;;4967659;28;20145;-67
2021/12/18 09:13:45;;;;;;;13.07;7.03;;;;;;;;;;4967827;28;20573;-70
2021/12/18 09:16:16;;;;;;;14.65;7.75;;;;;;;;;;4963447;28;20130;-69
2021/12/18 09:18:43;;;;;;;12.07;6.95;;;;;;;;;;4967246;28;20110;-68
2021/12/18 09:21:10;;;;;;;16.88;9.02;;;;;;;;;;4962647;28;20046;-69
2021/12/18 09:23:36;;;;;;;14.18;8.23;;;;;;;;;;4965836;28;21274;-67
2021/12/18 09:26:03;;;;;;;12.55;6.88;;;;;;;;;;4963464;28;20047;-67
2021/12/18 09:28:30;;;;;;;11.50;6.82;;;;;;;;;;4961689;28;20051;-68
2021/12/18 09:30:56;;;;;;;12.90;7.88;;;;;;;;;;4960600;28;20047;-68
2021/12/18 09:33:23;;;;;;;16.10;9.43;;;;;;;;;;4960894;28;20047;-69
2021/12/18 09:35:49;;;;;;;13.68;7.60;;;;;;;;;;4961190;28;20051;-70
2021/12/18 09:38:16;;;;;;;15.80;8.95;;;;;;;;;;4963749;28;20047;-71
2021/12/18 09:40:43;;;;;;;14.65;7.93;;;;;;;;;;4961120;28;20102;-67
2021/12/18 09:43:09;;;;;;;15.63;8.60;;;;;;;;;;4961584;28;20059;-68
2021/12/18 09:45:36;;;;;;;15.40;8.60;;;;;;;;;;4962503;28;20055;-68
2021/12/18 09:48:05;;;;;;;14.18;8.50;;;;;;;;;;4961049;28;20054;-69
2021/12/18 09:50:35;;;;;;;13.77;7.45;;;;;;;;;;4998626;23;20146;-64
2021/12/18 09:53:02;;;;;;;15.70;9.13;;;;;;;;;;4962032;28;20121;-64
2021/12/18 09:55:28;;;;;;;14.32;8.52;;;;;;;;;;4965171;28;20121;-65
2021/12/18 09:57:55;;;;;;;14.60;7.90;;;;;;;;;;4944782;28;20043;-65
2021/12/18 10:00:24;;;;;;;18.63;9.55;;;;;;;;;;4962813;28;20880;-64
2021/12/18 10:02:51;;;;;;;14.45;8.20;;;;;;;;;;4940642;28;20044;-64
2021/12/18 10:05:26;;;;;;;14.82;8.95;;;;;;;;;;4940064;29;20090;-65
2021/12/18 10:08:11;;;;;;;15.75;8.88;;;;;;;;;;4940371;29;20562;-64
2021/12/18 10:10:38;;;;;;;14.63;8.95;;;;;;;;;;4940035;28;20051;-65
2021/12/18 10:13:07;;;;;;;16.02;9.80;;;;;;;;;;4956435;28;20051;-65
2021/12/18 10:15:34;;;;;;;16.50;9.40;;;;;;;;;;4939032;29;20051;-67
2021/12/18 10:18:10;;;;;;;17.75;10.35;;;;;;;;;;4958302;28;20047;-68
2021/12/18 10:20:38;;;;;;;17.17;9.50;;;;;;;;;;4929766;29;20417;-68
2021/12/18 10:23:05;;;;;;;16.73;9.63;;;;;;;;;;4936748;29;20055;-67
2021/12/18 10:25:38;;;;;;;15.73;9.20;;;;;;;;;;4939044;29;20111;-67
2021/12/18 10:28:14;;;;;;;;;;;;;;;;;;4938821;29;20052;-64
2021/12/18 10:30:51;;;;;;;16.77;8.48;;;;;;;;;;4943036;28;20366;-65
2021/12/18 10:33:18;;;;;;;15.15;8.43;;;;;;;;;;4954250;28;20469;-65
2021/12/18 10:35:50;;;;;;;15.25;8.52;;;;;;;;;;4937211;29;20044;-64
2021/12/18 10:38:49;;;;;;;14.00;7.90;;;;;;;;;;4940161;29;20098;-66
2021/12/18 10:41:29;;;;;;;15.13;8.90;;;;;;;;;;4939722;28;20126;-65
2021/12/18 10:44:04;;;;;;;18.33;9.10;;;;;;;;;;4940399;29;20134;-65
2021/12/18 10:46:31;;;;;;;14.98;8.63;;;;;;;;;;4940973;29;20079;-65
2021/12/18 10:49:07;;;;;;;15.77;7.82;;;;;;;;;;4927550;29;20102;-65
2021/12/18 10:51:34;;;;;;;14.32;8.52;;;;;;;;;;4938314;29;20126;-65
2021/12/18 10:54:28;;;;;;;15.02;9.13;;;;;;;;;;4923589;29;20060;-65
2021/12/18 10:56:55;;;;;;;14.05;8.07;;;;;;;;;;4938361;29;20098;-65
2021/12/18 10:59:27;;;;;;;14.23;8.63;;;;;;;;;;4931598;29;20051;-65
2021/12/18 11:01:59;;;;;;;12.18;8.27;;;;;;;;;;4941974;28;20043;-66
2021/12/18 11:04:28;;;;;;;14.50;8.30;;;;;;;;;;4945782;29;20055;-65
2021/12/18 11:06:55;;;;;;;13.45;8.07;;;;;;;;;;4942064;28;20047;-67
2021/12/18 11:09:29;;;;;;;14.10;8.13;;;;;;;;;;4939574;29;20118;-65
2021/12/18 11:14:40;;;;;;;16.33;8.48;;;;;;;;;;4923193;29;20059;-65
2021/12/18 11:17:12;;;;;;;15.52;8.75;;;;;;;;;;4941713;29;20051;-65
2021/12/18 11:19:39;;;;;;;16.08;9.45;;;;;;;;;;4939788;29;20494;-65
2021/12/18 11:22:17;;;;;;;15.98;8.18;;;;;;;;;;4938828;29;20048;-65
2021/12/18 11:25:01;;;;;;;12.10;7.38;;;;;;;;;;4957680;28;20067;-65
2021/12/18 11:27:28;;;;;;;12.98;7.60;;;;;;;;;;4954201;28;20568;-66
2021/12/18 11:30:13;;;;;;;14.57;8.90;;;;;;;;;;4922780;29;20047;-65
2021/12/18 11:32:42;;;;;;;12.88;7.63;;;;;;;;;;4942090;29;20094;-65
2021/12/18 11:35:17;;;;;;;11.32;6.95;;;;;;;;;;4940861;28;20134;-65
2021/12/18 11:37:46;;;;;;;12.30;7.30;;;;;;;;;;4957288;28;20051;-66
2021/12/18 11:40:16;;;;;;;12.23;7.90;;;;;;;;;;4945697;28;20056;-65
2021/12/18 11:42:43;;;;;;;12.55;7.60;;;;;;;;;;4957615;28;20107;-65
2021/12/18 11:45:09;;;;;;;12.35;7.07;;;;;;;;;;4943204;29;20505;-64
2021/12/18 11:47:38;;;;;;;13.30;8.25;;;;;;;;;;4941157;29;20059;-68
2021/12/18 11:50:26;;;;;;;12.75;7.93;;;;;;;;;;4946609;29;20130;-66
2021/12/18 11:52:59;;;;;;;13.30;7.72;;;;;;;;;;4959104;28;20047;-67
2021/12/18 11:55:32;;;;;;;12.32;7.60;;;;;;;;;;4941355;29;20600;-65
2021/12/18 11:58:04;;;;;;;12.57;7.40;;;;;;;;;;4909436;29;20055;-66
2021/12/18 12:00:56;;;;;;;;;;;;;;;;;;;;;
2021/12/18 12:03:40;;;;;;;11.77;7.90;;;;;;;;;;4956665;28;20056;-67
2021/12/18 12:06:21;;;;;;;;;;;;;;;;;;4929035;29;20047;-66
2021/12/18 12:08:51;;;;;;;12.02;7.22;;;;;;;;;;4940123;29;19927;-66
2021/12/18 12:11:26;;;;;;;10.60;6.43;;;;;;;;;;4944754;29;20087;-66
2021/12/18 12:13:58;;;;;;;11.48;7.20;;;;;;;;;;4940780;29;20124;-67
2021/12/18 12:16:44;;;;;;;12.32;7.43;;;;;;;;;;4939939;29;20052;-66
2021/12/18 12:19:18;;;;;;;12.48;7.18;;;;;;;;;;4943329;29;20066;-66
2021/12/18 12:21:55;;;;;;;11.00;6.68;;;;;;;;;;4945232;28;20127;-66
2021/12/18 12:24:26;;;;;;;10.60;6.60;;;;;;;;;;4940019;29;20098;-65
2021/12/18 12:26:54;;;;;;;12.98;7.70;;;;;;;;;;4945070;29;20055;-66
2021/12/18 12:29:20;;;;;;;12.18;7.32;;;;;;;;;;4951665;29;20450;-66
2021/12/18 12:32:04;;;;;;;13.25;7.88;;;;;;;;;;4953074;29;20047;-66
2021/12/18 12:34:34;;;;;;;12.13;7.75;;;;;;;;;;4952044;29;20861;-66
2021/12/18 12:37:23;;;;;;;11.32;7.03;;;;;;;;;;4952863;29;20052;-65
2021/12/18 12:40:04;;;;;;;11.65;8.10;;;;;;;;;;4946852;29;20407;-65
2021/12/18 12:42:32;;;;;;;11.60;7.80;;;;;;;;;;4952774;28;20077;-65
2021/12/18 12:45:04;;;;;;;12.52;7.53;;;;;;;;;;4949201;28;20074;-68
2021/12/18 12:47:31;;;;;;;12.43;7.53;;;;;;;;;;4944433;28;20055;-67
2021/12/18 12:49:59;;;;;;;11.60;7.65;;;;;;;;;;4950638;28;20565;-66
2021/12/18 12:52:30;;;;;;;15.68;8.88;;;;;;;;;;4938814;28;20055;-66
2021/12/18 12:55:19;;;;;;;13.82;8.65;;;;;;;;;;4955783;28;20126;-68
2021/12/18 12:57:49;;;;;;;11.27;7.45;;;;;;;;;;4956146;28;20465;-68
2021/12/18 13:00:23;;;;;;;12.02;7.35;;;;;;;;;;4922376;29;20338;-67
2021/12/18 13:02:58;;;;;;;12.18;8.25;;;;;;;;;;4958256;28;20399;-66
2021/12/18 13:05:26;;;;;;;14.15;9.32;;;;;;;;;;4939449;29;20055;-66
2021/12/18 13:07:54;;;;;;;12.65;8.32;;;;;;;;;;4923447;29;20059;-66
2021/12/18 13:10:22;;;;;;;14.57;8.32;;;;;;;;;;4941265;29;20047;-66
2021/12/18 13:12:51;;;;;;;13.32;8.52;;;;;;;;;;4938429;29;20458;-67
2021/12/18 13:15:18;;;;;;;14.63;8.68;;;;;;;;;;4942820;28;20047;-66
2021/12/18 13:17:45;;;;;;;12.68;8.45;;;;;;;;;;4939477;29;20052;-66
2021/12/18 13:20:12;;;;;;;11.75;8.45;;;;;;;;;;4938826;29;20097;-67
2021/12/18 13:22:38;;;;;;;14.15;8.80;;;;;;;;;;4953977;28;20051;-66
2021/12/18 13:25:07;;;;;;;14.00;9.32;;;;;;;;;;4940871;29;20055;-66
2021/12/18 13:27:36;;;;;;;17.33;10.13;;;;;;;;;;4937853;29;20060;-65
2021/12/18 13:30:17;;;;;;;12.57;8.02;;;;;;;;;;4924004;29;20356;-66
2021/12/18 13:32:57;;;;;;;12.85;8.88;;;;;;;;;;4942147;29;20055;-65
2021/12/18 13:35:26;;;;;;;15.75;9.77;;;;;;;;;;4939129;29;20697;-67
2021/12/18 13:38:09;;;;;;;12.20;8.63;;;;;;;;;;4939406;28;20065;-66
2021/12/18 13:40:38;;;;;;;14.57;8.00;;;;;;;;;;4941902;29;20047;-66
2021/12/18 13:43:13;;;;;;;14.05;7.68;;;;;;;;;;4939245;29;20106;-65
2021/12/18 13:46:01;;;;;;;14.43;7.93;;;;;;;;;;4939102;28;20048;-66
2021/12/18 13:48:30;;;;;;;11.35;7.65;;;;;;;;;;4941836;29;20109;-65
2021/12/18 13:51:01;;;;;;;11.95;8.23;;;;;;;;;;4940416;29;20098;-66
2021/12/18 13:53:28;;;;;;;13.70;8.65;;;;;;;;;;4937724;29;20055;-66
2021/12/18 13:55:56;;;;;;;14.55;8.95;;;;;;;;;;4953384;28;20566;-66
2021/12/18 13:58:25;;;;;;;14.23;9.13;;;;;;;;;;4941591;28;20102;-66
2021/12/18 14:00:58;;;;;;;12.27;7.65;;;;;;;;;;4955841;28;20055;-66
2021/12/18 14:03:34;;;;;;;13.10;8.18;;;;;;;;;;4938308;29;20055;-67
2021/12/18 14:06:14;;;;;;;13.75;8.32;;;;;;;;;;4936664;29;20079;-66
2021/12/18 14:08:42;;;;;;;13.02;8.75;;;;;;;;;;4943902;29;20055;-66
2021/12/18 14:11:14;;;;;;;15.57;9.38;;;;;;;;;;4923255;29;20055;-65
2021/12/18 14:13:52;;;;;;;13.27;8.65;;;;;;;;;;4937876;29;20415;-65
2021/12/18 14:16:20;;;;;;;12.85;8.55;;;;;;;;;;4954492;28;20051;-65
2021/12/18 14:19:08;;;;;;;15.55;10.10;;;;;;;;;;4938167;29;20091;-66
2021/12/18 14:21:39;;;;;;;15.32;9.20;;;;;;;;;;4937658;29;20055;-65
2021/12/18 14:24:07;;;;;;;15.63;9.90;;;;;;;;;;4939383;29;20490;-65
2021/12/18 14:26:34;;;;;;;14.20;9.45;;;;;;;;;;4953220;28;20110;-66
2021/12/18 14:29:12;;;;;;;16.40;10.05;;;;;;;;;;4938392;29;20055;-66
2021/12/18 14:31:44;;;;;;;15.13;9.75;;;;;;;;;;4937351;29;20507;-66
2021/12/18 14:34:16;;;;;;;14.18;10.07;;;;;;;;;;4937438;29;20088;-65
2021/12/18 14:36:44;;;;;;;16.35;11.02;;;;;;;;;;4937672;29;20098;-65
2021/12/18 14:39:21;;;;;;;14.95;10.27;;;;;;;;;;4938489;29;20052;-65
2021/12/18 14:42:12;;;;;;;17.75;11.02;;;;;;;;;;4937907;28;20044;-65
2021/12/18 14:44:55;;;;;;;18.70;12.18;;;;;;;;;;4937769;28;20048;-65
2021/12/18 14:47:21;;;;;;;;;;;;;;;;;;4941339;29;20059;-65
2021/12/18 14:50:00;;;;;;;18.52;11.32;;;;;;;;;;4938663;29;20381;-64
2021/12/18 14:52:27;;;;;;;17.73;11.65;;;;;;;;;;4938375;29;20063;-65
2021/12/18 14:54:57;;;;;;;17.23;11.00;;;;;;;;;;4956751;28;20055;-64
2021/12/18 14:57:26;;;;;;;18.92;11.85;;;;;;;;;;4937752;29;20103;-65
2021/12/18 15:00:15;;;;;;;16.85;11.10;;;;;;;;;;4939180;29;20047;-65
2021/12/18 15:02:58;;;;;;;20.15;11.20;;;;;;;;;;4941143;29;20117;-65
2021/12/18 15:05:25;;;;;;;22.35;13.00;;;;;;;;;;4938968;29;20074;-65
2021/12/18 15:08:02;;;;;;;22.30;13.50;;;;;;;;;;4936579;29;20052;-64
2021/12/18 15:10:52;;;;;;;19.75;12.52;;;;;;;;;;4960809;28;20078;-64
2021/12/18 15:13:21;;;;;;;20.63;13.40;;;;;;;;;;4945862;29;20051;-64
2021/12/18 15:16:14;;;;;;;20.98;12.30;;;;;;;;;;4929884;29;20337;-63
2021/12/18 15:18:42;;;;;;;20.20;12.73;;;;;;;;;;4958906;28;20499;-65
2021/12/18 15:21:09;;;;;;;23.33;13.40;;;;;;;;;;4944536;29;20505;-64
2021/12/18 15:23:36;;;;;;;21.05;13.10;;;;;;;;;;4942928;28;20060;-64
2021/12/18 15:26:03;;;;;;;26.25;15.20;;;;;;;;;;4943838;29;20055;-64
2021/12/18 15:28:30;;;;;;;22.92;14.55;;;;;;;;;;4960228;28;20055;-64
2021/12/18 15:30:57;;;;;;;23.70;13.77;;;;;;;;;;4945531;28;20047;-65
2021/12/18 15:33:24;;;;;;;21.65;12.63;;;;;;;;;;4943582;29;20051;-65